createdAt,value
2018-01-24T00:00:52.774Z,89
2018-01-24T00:01:53.495Z,89
2018-01-24T00:02:54.203Z,89
2018-01-24T00:03:54.925Z,89
2018-01-24T00:04:55.634Z,90
2018-01-24T00:05:56.342Z,89
2018-01-24T00:06:57.049Z,90
2018-01-24T00:07:57.756Z,90
2018-01-24T00:08:58.464Z,90
2018-01-24T00:09:59.169Z,90
2018-01-24T00:10:59.891Z,90
2018-01-24T00:12:00.597Z,89
2018-01-24T00:13:01.322Z,90
2018-01-24T00:14:02.031Z,90
2018-01-24T00:15:02.742Z,89
2018-01-24T00:16:03.461Z,89
2018-01-24T00:17:04.170Z,90
2018-01-24T00:18:04.925Z,89
2018-01-24T00:19:05.610Z,89
2018-01-24T00:20:06.323Z,89
2018-01-24T00:21:07.033Z,89
2018-01-24T00:22:07.742Z,90
2018-01-24T00:23:08.497Z,90
2018-01-24T00:24:09.157Z,90
2018-01-24T00:25:09.865Z,89
2018-01-24T00:26:10.589Z,89
2018-01-24T00:27:11.297Z,89
2018-01-24T00:28:12.005Z,89
2018-01-24T00:29:12.713Z,90
2018-01-24T00:30:13.433Z,89
2018-01-24T00:31:14.140Z,90
2018-01-24T00:32:14.848Z,89
2018-01-24T00:33:15.557Z,90
2018-01-24T00:34:16.262Z,89
2018-01-24T00:35:16.970Z,89
2018-01-24T00:36:17.678Z,89
2018-01-24T00:37:18.386Z,89
2018-01-24T00:38:19.092Z,89
2018-01-24T00:39:19.799Z,90
2018-01-24T00:40:20.506Z,90
2018-01-24T00:41:21.215Z,89
2018-01-24T00:42:21.938Z,90
2018-01-24T00:43:22.645Z,89
2018-01-24T00:44:23.351Z,90
2018-01-24T00:45:24.060Z,90
2018-01-24T00:46:24.766Z,90
2018-01-24T00:47:25.471Z,89
2018-01-24T00:48:26.179Z,90
2018-01-24T00:49:26.900Z,90
2018-01-24T00:50:27.606Z,89
2018-01-24T00:51:28.314Z,89
2018-01-24T00:52:29.038Z,90
2018-01-24T00:53:29.745Z,90
2018-01-24T00:54:30.452Z,90
2018-01-24T00:55:31.159Z,90
2018-01-24T00:56:31.870Z,90
2018-01-24T00:57:32.572Z,90
2018-01-24T00:58:33.278Z,91
2018-01-24T00:59:33.985Z,91
2018-01-24T01:00:34.693Z,91
2018-01-24T01:01:35.402Z,90
2018-01-24T01:02:36.109Z,90
2018-01-24T01:03:36.818Z,91
2018-01-24T01:04:37.526Z,90
2018-01-24T01:05:38.233Z,90
2018-01-24T01:06:38.941Z,90
2018-01-24T01:07:39.649Z,90
2018-01-24T01:08:40.372Z,90
2018-01-24T01:09:41.093Z,90
2018-01-24T01:10:41.801Z,90
2018-01-24T01:11:42.511Z,90
2018-01-24T01:12:43.217Z,90
2018-01-24T01:13:43.924Z,90
2018-01-24T01:14:44.634Z,90
2018-01-24T01:15:45.340Z,90
2018-01-24T01:16:46.047Z,90
2018-01-24T01:17:46.755Z,90
2018-01-24T01:18:47.462Z,90
2018-01-24T01:19:48.170Z,90
2018-01-24T01:20:48.893Z,91
2018-01-24T01:21:49.602Z,90
2018-01-24T01:22:50.324Z,90
2018-01-24T01:23:51.047Z,90
2018-01-24T01:24:51.756Z,90
2018-01-24T01:25:52.466Z,90
2018-01-24T01:26:53.175Z,90
2018-01-24T01:27:53.898Z,91
2018-01-24T01:28:54.606Z,90
2018-01-24T01:29:55.315Z,90
2018-01-24T01:30:56.022Z,90
2018-01-24T01:31:56.982Z,91
2018-01-24T01:32:57.693Z,90
2018-01-24T01:33:58.413Z,90
2018-01-24T01:34:59.136Z,90
2018-01-24T01:35:59.842Z,90
2018-01-24T01:37:00.816Z,90
2018-01-24T01:38:01.524Z,90
2018-01-24T01:39:02.246Z,90
2018-01-24T01:40:02.969Z,90
2018-01-24T01:41:03.679Z,90
2018-01-24T01:42:04.389Z,90
2018-01-24T01:43:05.098Z,91
2018-01-24T01:44:05.806Z,90
2018-01-24T01:45:06.512Z,91
2018-01-24T01:46:07.221Z,91
2018-01-24T01:47:07.928Z,90
2018-01-24T01:48:08.653Z,90
2018-01-24T01:49:09.359Z,90
2018-01-24T01:50:10.068Z,90
2018-01-24T01:51:10.776Z,90
2018-01-24T01:52:11.485Z,90
2018-01-24T01:53:12.197Z,90
2018-01-24T01:54:12.906Z,90
2018-01-24T01:55:13.614Z,89
2018-01-24T01:56:14.327Z,90
2018-01-24T01:57:15.032Z,89
2018-01-24T01:58:15.740Z,90
2018-01-24T01:59:16.449Z,89
2018-01-24T02:00:17.174Z,89
2018-01-24T02:01:17.883Z,89
2018-01-24T02:02:18.591Z,89
2018-01-24T02:03:19.299Z,89
2018-01-24T02:04:20.009Z,89
2018-01-24T02:05:20.721Z,89
2018-01-24T02:06:21.441Z,88
2018-01-24T02:07:22.149Z,89
2018-01-24T02:08:22.858Z,89
2018-01-24T02:09:23.581Z,88
2018-01-24T02:10:24.290Z,89
2018-01-24T02:11:24.998Z,88
2018-01-24T02:12:25.705Z,88
2018-01-24T02:13:26.414Z,88
2018-01-24T02:14:27.137Z,88
2018-01-24T02:15:27.847Z,88
2018-01-24T02:16:28.558Z,88
2018-01-24T02:17:29.269Z,88
2018-01-24T02:18:29.979Z,88
2018-01-24T02:19:30.724Z,88
2018-01-24T02:20:31.396Z,88
2018-01-24T02:21:32.105Z,88
2018-01-24T02:22:32.815Z,87
2018-01-24T02:23:33.523Z,88
2018-01-24T02:24:34.245Z,87
2018-01-24T02:25:34.969Z,88
2018-01-24T02:26:35.693Z,87
2018-01-24T02:27:36.414Z,87
2018-01-24T02:28:37.121Z,88
2018-01-24T02:29:37.847Z,87
2018-01-24T02:30:38.569Z,88
2018-01-24T02:31:39.277Z,88
2018-01-24T02:32:40.005Z,87
2018-01-24T02:33:40.726Z,88
2018-01-24T02:34:41.433Z,88
2018-01-24T02:35:42.143Z,88
2018-01-24T02:36:42.868Z,89
2018-01-24T02:37:43.580Z,89
2018-01-24T02:38:44.290Z,88
2018-01-24T02:39:44.998Z,88
2018-01-24T02:40:45.708Z,88
2018-01-24T02:41:46.417Z,88
2018-01-24T02:42:47.141Z,89
2018-01-24T02:43:47.855Z,88
2018-01-24T02:44:48.559Z,88
2018-01-24T02:45:49.268Z,88
2018-01-24T02:46:49.975Z,89
2018-01-24T02:47:50.683Z,89
2018-01-24T02:48:51.392Z,88
2018-01-24T02:49:52.100Z,89
2018-01-24T02:50:52.811Z,88
2018-01-24T02:51:53.523Z,88
2018-01-24T02:52:54.243Z,88
2018-01-24T02:53:54.952Z,88
2018-01-24T02:54:55.662Z,88
2018-01-24T02:55:56.371Z,89
2018-01-24T02:56:57.095Z,88
2018-01-24T02:57:57.806Z,88
2018-01-24T02:58:58.533Z,89
2018-01-24T02:59:59.245Z,88
2018-01-24T03:00:59.952Z,89
2018-01-24T03:02:00.663Z,88
2018-01-24T03:03:01.370Z,88
2018-01-24T03:04:02.078Z,89
2018-01-24T03:05:02.787Z,88
2018-01-24T03:06:03.510Z,89
2018-01-24T03:07:04.232Z,89
2018-01-24T03:08:04.944Z,89
2018-01-24T03:09:05.668Z,89
2018-01-24T03:10:06.379Z,89
2018-01-24T03:11:07.088Z,88
2018-01-24T03:12:07.812Z,88
2018-01-24T03:13:08.534Z,89
2018-01-24T03:14:09.258Z,89
2018-01-24T03:15:09.966Z,89
2018-01-24T03:16:10.673Z,89
2018-01-24T03:17:11.396Z,89
2018-01-24T03:18:12.128Z,89
2018-01-24T03:19:12.830Z,88
2018-01-24T03:20:13.541Z,89
2018-01-24T03:21:14.252Z,88
2018-01-24T03:22:14.961Z,89
2018-01-24T03:23:15.685Z,88
2018-01-24T03:24:16.394Z,88
2018-01-24T03:25:17.103Z,88
2018-01-24T03:26:17.814Z,88
2018-01-24T03:27:18.523Z,89
2018-01-24T03:28:19.247Z,88
2018-01-24T03:29:19.956Z,88
2018-01-24T03:30:20.665Z,88
2018-01-24T03:31:21.375Z,88
2018-01-24T03:32:22.099Z,88
2018-01-24T03:33:22.807Z,88
2018-01-24T03:34:23.517Z,89
2018-01-24T03:35:24.229Z,88
2018-01-24T03:36:24.953Z,88
2018-01-24T03:37:25.662Z,88
2018-01-24T03:38:26.385Z,88
2018-01-24T03:39:27.095Z,88
2018-01-24T03:40:27.809Z,88
2018-01-24T03:41:28.528Z,88
2018-01-24T03:42:29.237Z,88
2018-01-24T03:43:29.960Z,88
2018-01-24T03:44:30.669Z,88
2018-01-24T03:45:31.378Z,88
2018-01-24T03:46:32.088Z,89
2018-01-24T03:47:32.800Z,88
2018-01-24T03:48:33.503Z,89
2018-01-24T03:49:34.218Z,88
2018-01-24T03:50:34.923Z,88
2018-01-24T03:51:35.634Z,88
2018-01-24T03:52:36.359Z,88
2018-01-24T03:53:37.067Z,88
2018-01-24T03:54:37.792Z,88
2018-01-24T03:55:38.503Z,88
2018-01-24T03:56:39.218Z,88
2018-01-24T03:57:39.927Z,88
2018-01-24T03:58:40.637Z,88
2018-01-24T03:59:41.347Z,88
2018-01-24T04:00:42.070Z,88
2018-01-24T04:01:42.779Z,88
2018-01-24T04:02:43.492Z,88
2018-01-24T04:03:44.215Z,88
2018-01-24T04:04:44.926Z,88
2018-01-24T04:05:45.635Z,88
2018-01-24T04:06:46.355Z,88
2018-01-24T04:07:47.065Z,88
2018-01-24T04:08:47.777Z,88
2018-01-24T04:09:48.484Z,88
2018-01-24T04:10:49.195Z,88
2018-01-24T04:11:49.906Z,87
2018-01-24T04:12:50.616Z,87
2018-01-24T04:13:51.327Z,87
2018-01-24T04:14:52.039Z,87
2018-01-24T04:15:52.762Z,87
2018-01-24T04:16:53.484Z,87
2018-01-24T04:17:54.194Z,87
2018-01-24T04:18:54.920Z,87
2018-01-24T04:19:55.628Z,87
2018-01-24T04:20:56.337Z,87
2018-01-24T04:21:57.062Z,87
2018-01-24T04:22:57.772Z,87
2018-01-24T04:23:58.482Z,87
2018-01-24T04:24:59.192Z,87
2018-01-24T04:25:59.903Z,87
2018-01-24T04:27:00.615Z,87
2018-01-24T04:28:01.326Z,88
2018-01-24T04:29:02.036Z,87
2018-01-24T04:30:02.759Z,87
2018-01-24T04:31:03.469Z,87
2018-01-24T04:32:04.178Z,87
2018-01-24T04:33:04.889Z,87
2018-01-24T04:34:05.599Z,87
2018-01-24T04:35:06.309Z,87
2018-01-24T04:36:07.022Z,87
2018-01-24T04:37:07.734Z,87
2018-01-24T04:38:08.458Z,87
2018-01-24T04:39:09.170Z,87
2018-01-24T04:40:09.878Z,87
2018-01-24T04:41:10.588Z,87
2018-01-24T04:42:11.299Z,87
2018-01-24T04:43:12.013Z,86
2018-01-24T04:44:12.736Z,86
2018-01-24T04:45:13.448Z,87
2018-01-24T04:46:14.155Z,87
2018-01-24T04:47:14.865Z,87
2018-01-24T04:48:15.575Z,87
2018-01-24T04:49:16.284Z,86
2018-01-24T04:50:16.995Z,86
2018-01-24T04:51:17.706Z,86
2018-01-24T04:52:18.432Z,86
2018-01-24T04:53:19.143Z,86
2018-01-24T04:54:19.853Z,86
2018-01-24T04:55:20.564Z,86
2018-01-24T04:56:21.284Z,86
2018-01-24T04:57:22.011Z,85
2018-01-24T04:58:22.737Z,85
2018-01-24T04:59:23.447Z,85
2018-01-24T05:00:24.158Z,85
2018-01-24T05:01:24.884Z,85
2018-01-24T05:02:25.607Z,85
2018-01-24T05:03:26.318Z,85
2018-01-24T05:04:27.044Z,85
2018-01-24T05:05:27.768Z,85
2018-01-24T05:06:28.478Z,85
2018-01-24T05:07:29.186Z,85
2018-01-24T05:08:29.912Z,85
2018-01-24T05:09:30.622Z,85
2018-01-24T05:10:31.333Z,85
2018-01-24T05:11:32.043Z,86
2018-01-24T05:12:32.753Z,86
2018-01-24T05:13:33.462Z,86
2018-01-24T05:14:34.172Z,86
2018-01-24T05:15:34.881Z,86
2018-01-24T05:16:35.591Z,85
2018-01-24T05:17:36.300Z,86
2018-01-24T05:18:37.022Z,86
2018-01-24T05:19:37.731Z,86
2018-01-24T05:20:38.457Z,86
2018-01-24T05:21:39.166Z,86
2018-01-24T05:22:39.875Z,86
2018-01-24T05:23:40.584Z,86
2018-01-24T05:24:41.295Z,86
2018-01-24T05:25:42.004Z,86
2018-01-24T05:26:42.714Z,86
2018-01-24T05:27:43.425Z,86
2018-01-24T05:28:44.150Z,86
2018-01-24T05:29:44.875Z,87
2018-01-24T05:30:45.586Z,86
2018-01-24T05:31:46.296Z,87
2018-01-24T05:32:47.006Z,87
2018-01-24T05:33:47.716Z,86
2018-01-24T05:34:48.440Z,86
2018-01-24T05:35:49.151Z,87
2018-01-24T05:36:49.858Z,87
2018-01-24T05:37:50.567Z,87
2018-01-24T05:38:51.277Z,87
2018-01-24T05:39:51.986Z,87
2018-01-24T05:40:52.696Z,87
2018-01-24T05:41:53.420Z,87
2018-01-24T05:42:54.146Z,87
2018-01-24T05:43:54.855Z,87
2018-01-24T05:44:55.564Z,87
2018-01-24T05:45:56.287Z,87
2018-01-24T05:46:56.999Z,87
2018-01-24T05:47:57.721Z,87
2018-01-24T05:48:58.433Z,87
2018-01-24T05:49:59.139Z,86
2018-01-24T05:50:59.849Z,87
2018-01-24T05:52:00.575Z,87
2018-01-24T05:53:01.282Z,86
2018-01-24T05:54:01.997Z,86
2018-01-24T05:55:02.717Z,87
2018-01-24T05:56:03.427Z,87
2018-01-24T05:57:04.136Z,87
2018-01-24T05:58:04.846Z,87
2018-01-24T05:59:05.572Z,87
2018-01-24T06:00:06.282Z,87
2018-01-24T06:01:06.991Z,87
2018-01-24T06:02:07.701Z,87
2018-01-24T06:03:08.409Z,87
2018-01-24T06:04:09.116Z,87
2018-01-24T06:05:09.888Z,86
2018-01-24T06:06:10.538Z,86
2018-01-24T06:07:11.244Z,87
2018-01-24T06:08:11.952Z,87
2018-01-24T06:09:12.660Z,86
2018-01-24T06:10:13.370Z,87
2018-01-24T06:11:14.079Z,87
2018-01-24T06:12:14.789Z,87
2018-01-24T06:13:15.513Z,87
2018-01-24T06:14:16.237Z,87
2018-01-24T06:15:16.944Z,88
2018-01-24T06:16:17.652Z,87
2018-01-24T06:17:18.359Z,88
2018-01-24T06:18:19.083Z,88
2018-01-24T06:19:19.808Z,88
2018-01-24T06:20:20.516Z,88
2018-01-24T06:21:21.238Z,88
2018-01-24T06:22:21.964Z,88
2018-01-24T06:23:22.673Z,88
2018-01-24T06:24:23.382Z,88
2018-01-24T06:25:24.092Z,88
2018-01-24T06:26:24.815Z,88
2018-01-24T06:27:25.537Z,88
2018-01-24T06:28:26.247Z,88
2018-01-24T06:29:26.967Z,88
2018-01-24T06:30:27.676Z,88
2018-01-24T06:31:28.384Z,88
2018-01-24T06:32:29.093Z,88
2018-01-24T06:33:29.814Z,88
2018-01-24T06:34:30.521Z,88
2018-01-24T06:35:31.228Z,88
2018-01-24T06:36:31.939Z,88
2018-01-24T06:37:32.646Z,89
2018-01-24T06:38:33.369Z,88
2018-01-24T06:39:34.078Z,89
2018-01-24T06:40:34.786Z,89
2018-01-24T06:41:35.495Z,89
2018-01-24T06:42:36.203Z,89
2018-01-24T06:43:36.911Z,89
2018-01-24T06:44:37.618Z,89
2018-01-24T06:45:38.325Z,90
2018-01-24T06:46:39.035Z,89
2018-01-24T06:47:39.740Z,90
2018-01-24T06:48:40.461Z,89
2018-01-24T06:49:41.182Z,90
2018-01-24T06:50:41.904Z,91
2018-01-24T06:51:42.610Z,91
2018-01-24T06:52:43.318Z,90
2018-01-24T06:53:44.028Z,91
2018-01-24T06:54:44.751Z,92
2018-01-24T06:55:45.458Z,91
2018-01-24T06:56:46.167Z,91
2018-01-24T06:57:46.876Z,92
2018-01-24T06:58:47.584Z,91
2018-01-24T06:59:48.291Z,92
2018-01-24T07:00:48.998Z,91
2018-01-24T07:01:49.706Z,91
2018-01-24T07:02:50.414Z,91
2018-01-24T07:03:51.140Z,91
2018-01-24T07:04:51.849Z,91
2018-01-24T07:05:52.558Z,91
2018-01-24T07:06:53.267Z,91
2018-01-24T07:07:53.975Z,91
2018-01-24T07:08:54.698Z,92
2018-01-24T07:09:55.407Z,92
2018-01-24T07:10:56.118Z,92
2018-01-24T07:11:56.826Z,92
2018-01-24T07:12:57.535Z,91
2018-01-24T07:13:58.245Z,92
2018-01-24T07:14:58.953Z,92
2018-01-24T07:15:59.662Z,92
2018-01-24T07:17:00.370Z,91
2018-01-24T07:18:01.081Z,91
2018-01-24T07:19:01.790Z,92
2018-01-24T07:20:02.500Z,91
2018-01-24T07:21:03.210Z,91
2018-01-24T07:22:03.921Z,92
2018-01-24T07:23:04.630Z,92
2018-01-24T07:24:05.341Z,91
2018-01-24T07:25:06.051Z,92
2018-01-24T07:26:06.773Z,92
2018-01-24T07:27:07.483Z,91
2018-01-24T07:28:08.192Z,92
2018-01-24T07:29:08.918Z,91
2018-01-24T07:30:09.629Z,92
2018-01-24T07:31:10.339Z,92
2018-01-24T07:32:11.050Z,92
2018-01-24T07:33:11.760Z,91
2018-01-24T07:34:12.482Z,91
2018-01-24T07:35:13.194Z,92
2018-01-24T07:36:13.906Z,92
2018-01-24T07:37:14.631Z,93
2018-01-24T07:38:15.341Z,93
2018-01-24T07:39:16.050Z,92
2018-01-24T07:40:16.760Z,92
2018-01-24T07:41:17.483Z,92
2018-01-24T07:42:18.209Z,93
2018-01-24T07:43:18.919Z,92
2018-01-24T07:44:19.629Z,92
2018-01-24T07:45:20.339Z,93
2018-01-24T07:46:21.049Z,93
2018-01-24T07:47:21.762Z,92
2018-01-24T07:48:22.478Z,92
2018-01-24T07:49:23.187Z,92
2018-01-24T07:50:23.899Z,92
2018-01-24T07:51:24.610Z,92
2018-01-24T07:52:25.323Z,92
2018-01-24T07:53:26.037Z,92
2018-01-24T07:54:26.761Z,92
2018-01-24T07:55:27.489Z,92
2018-01-24T07:56:28.200Z,93
2018-01-24T07:57:28.912Z,92
2018-01-24T07:58:29.637Z,93
2018-01-24T07:59:30.350Z,92
2018-01-24T08:00:31.061Z,92
2018-01-24T08:01:31.775Z,92
2018-01-24T08:02:32.493Z,92
2018-01-24T08:03:33.199Z,92
2018-01-24T08:04:33.916Z,92
2018-01-24T08:05:34.621Z,92
2018-01-24T08:06:35.334Z,92
2018-01-24T08:07:36.053Z,92
2018-01-24T08:08:36.774Z,92
2018-01-24T08:09:37.487Z,92
2018-01-24T08:10:38.200Z,92
2018-01-24T08:11:38.912Z,92
2018-01-24T08:12:39.623Z,92
2018-01-24T08:13:40.334Z,92
2018-01-24T08:14:41.060Z,92
2018-01-24T08:15:41.772Z,92
2018-01-24T08:16:42.486Z,93
2018-01-24T08:17:43.200Z,93
2018-01-24T08:18:43.913Z,92
2018-01-24T08:19:44.625Z,92
2018-01-24T08:20:45.336Z,92
2018-01-24T08:21:46.063Z,92
2018-01-24T08:22:46.776Z,92
2018-01-24T08:23:47.487Z,92
2018-01-24T08:24:48.200Z,92
2018-01-24T08:25:48.913Z,92
2018-01-24T08:26:49.630Z,92
2018-01-24T08:27:50.356Z,92
2018-01-24T08:28:51.071Z,92
2018-01-24T08:29:51.783Z,92
2018-01-24T08:30:52.495Z,92
2018-01-24T08:31:53.206Z,92
2018-01-24T08:32:53.920Z,92
2018-01-24T08:33:54.633Z,92
2018-01-24T08:34:55.361Z,93
2018-01-24T08:35:56.088Z,92
2018-01-24T08:36:56.801Z,92
2018-01-24T08:37:57.513Z,92
2018-01-24T08:38:58.226Z,92
2018-01-24T08:39:58.940Z,92
2018-01-24T08:40:59.662Z,92
2018-01-24T08:42:00.376Z,92
2018-01-24T08:43:01.090Z,92
2018-01-24T08:44:01.803Z,92
2018-01-24T08:45:02.515Z,92
2018-01-24T08:46:03.227Z,93
2018-01-24T08:47:03.941Z,92
2018-01-24T08:48:04.654Z,92
2018-01-24T08:49:05.373Z,92
2018-01-24T08:50:06.080Z,92
2018-01-24T08:51:06.806Z,92
2018-01-24T08:52:07.519Z,92
2018-01-24T08:53:08.240Z,92
2018-01-24T08:54:08.950Z,92
2018-01-24T08:55:09.663Z,92
2018-01-24T08:56:10.377Z,92
2018-01-24T08:57:11.094Z,92
2018-01-24T08:58:11.825Z,93
2018-01-24T08:59:12.540Z,92
2018-01-24T09:00:13.255Z,92
2018-01-24T09:01:13.970Z,92
2018-01-24T09:02:14.684Z,93
2018-01-24T09:03:15.415Z,92
2018-01-24T09:04:16.129Z,93
2018-01-24T09:05:16.844Z,93
2018-01-24T09:06:17.560Z,92
2018-01-24T09:07:18.291Z,92
2018-01-24T09:08:19.007Z,92
2018-01-24T09:09:19.722Z,92
2018-01-24T09:10:20.452Z,93
2018-01-24T09:11:21.168Z,93
2018-01-24T09:12:21.892Z,93
2018-01-24T09:13:22.599Z,92
2018-01-24T09:14:23.315Z,92
2018-01-24T09:15:24.048Z,92
2018-01-24T09:16:24.763Z,92
2018-01-24T09:17:25.478Z,92
2018-01-24T09:18:26.195Z,92
2018-01-24T09:19:26.912Z,92
2018-01-24T09:20:27.627Z,92
2018-01-24T09:21:28.355Z,93
2018-01-24T09:22:29.070Z,92
2018-01-24T09:23:29.786Z,93
2018-01-24T09:24:30.500Z,93
2018-01-24T09:25:31.231Z,92
2018-01-24T09:26:31.959Z,92
2018-01-24T09:27:32.689Z,92
2018-01-24T09:28:33.404Z,93
2018-01-24T09:29:34.119Z,92
2018-01-24T09:30:34.836Z,93
2018-01-24T09:31:35.568Z,92
2018-01-24T09:32:36.283Z,93
2018-01-24T09:33:36.998Z,92
2018-01-24T09:34:37.714Z,93
2018-01-24T09:35:38.453Z,93
2018-01-24T09:36:39.174Z,92
2018-01-24T09:37:39.906Z,93
2018-01-24T09:38:40.625Z,92
2018-01-24T09:39:41.348Z,92
2018-01-24T09:40:42.064Z,93
2018-01-24T09:41:42.780Z,93
2018-01-24T09:42:43.495Z,93
2018-01-24T09:43:44.211Z,92
2018-01-24T09:44:44.924Z,92
2018-01-24T09:45:45.653Z,92
2018-01-24T09:46:46.369Z,92
2018-01-24T09:47:47.082Z,92
2018-01-24T09:48:47.797Z,92
2018-01-24T09:49:48.512Z,92
2018-01-24T09:50:49.227Z,92
2018-01-24T09:51:49.942Z,92
2018-01-24T09:52:50.658Z,92
2018-01-24T09:53:51.371Z,92
2018-01-24T09:54:52.085Z,92
2018-01-24T09:55:52.806Z,92
2018-01-24T09:56:53.515Z,92
2018-01-24T09:57:54.230Z,92
2018-01-24T09:58:54.984Z,91
2018-01-24T09:59:55.673Z,92
2018-01-24T10:00:56.390Z,92
2018-01-24T10:01:57.106Z,92
2018-01-24T10:02:57.821Z,92
2018-01-24T10:03:58.536Z,92
2018-01-24T10:04:59.250Z,92
2018-01-24T10:05:59.967Z,92
2018-01-24T10:07:00.698Z,92
2018-01-24T10:08:01.412Z,92
2018-01-24T10:09:02.127Z,91
2018-01-24T10:10:02.844Z,92
2018-01-24T10:11:03.558Z,92
2018-01-24T10:12:04.273Z,92
2018-01-24T10:13:04.990Z,92
2018-01-24T10:14:05.707Z,92
2018-01-24T10:15:06.436Z,92
2018-01-24T10:16:07.153Z,92
2018-01-24T10:17:07.872Z,92
2018-01-24T10:18:08.601Z,92
2018-01-24T10:19:09.317Z,92
2018-01-24T10:20:10.033Z,92
2018-01-24T10:21:10.750Z,92
2018-01-24T10:22:11.469Z,92
2018-01-24T10:23:12.199Z,92
2018-01-24T10:24:12.916Z,92
2018-01-24T10:25:13.635Z,92
2018-01-24T10:26:14.350Z,91
2018-01-24T10:27:15.065Z,92
2018-01-24T10:28:15.780Z,92
2018-01-24T10:29:16.510Z,91
2018-01-24T10:30:17.228Z,91
2018-01-24T10:31:17.944Z,91
2018-01-24T10:32:18.659Z,91
2018-01-24T10:33:19.391Z,91
2018-01-24T10:34:20.107Z,91
2018-01-24T10:35:20.823Z,92
2018-01-24T10:36:21.537Z,91
2018-01-24T10:37:22.253Z,92
2018-01-24T10:38:22.968Z,92
2018-01-24T10:39:23.683Z,92
2018-01-24T10:40:24.400Z,91
2018-01-24T10:41:25.116Z,92
2018-01-24T10:42:25.834Z,92
2018-01-24T10:43:26.552Z,92
2018-01-24T10:44:27.268Z,92
2018-01-24T10:45:27.998Z,92
2018-01-24T10:46:28.717Z,92
2018-01-24T10:47:29.433Z,92
2018-01-24T10:48:30.150Z,92
2018-01-24T10:49:30.867Z,92
2018-01-24T10:50:31.583Z,91
2018-01-24T10:51:32.305Z,91
2018-01-24T10:52:33.017Z,92
2018-01-24T10:53:33.736Z,92
2018-01-24T10:54:34.468Z,92
2018-01-24T10:55:35.187Z,92
2018-01-24T10:56:35.904Z,92
2018-01-24T10:57:36.624Z,93
2018-01-24T10:58:37.343Z,93
2018-01-24T10:59:38.074Z,92
2018-01-24T11:00:38.792Z,92
2018-01-24T11:01:39.512Z,92
2018-01-24T11:02:40.231Z,92
2018-01-24T11:03:40.949Z,92
2018-01-24T11:04:41.668Z,93
2018-01-24T11:05:42.386Z,92
2018-01-24T11:06:43.104Z,92
2018-01-24T11:07:43.823Z,92
2018-01-24T11:08:44.541Z,91
2018-01-24T11:09:45.271Z,91
2018-01-24T11:10:45.987Z,91
2018-01-24T11:11:46.704Z,91
2018-01-24T11:12:47.422Z,91
2018-01-24T11:13:48.139Z,91
2018-01-24T11:14:48.857Z,91
2018-01-24T11:15:49.575Z,91
2018-01-24T11:16:50.311Z,91
2018-01-24T11:17:51.029Z,91
2018-01-24T11:18:51.746Z,92
2018-01-24T11:19:52.466Z,91
2018-01-24T11:20:53.184Z,91
2018-01-24T11:21:53.902Z,92
2018-01-24T11:22:54.625Z,91
2018-01-24T11:23:55.356Z,91
2018-01-24T11:24:56.075Z,91
2018-01-24T11:25:56.795Z,91
2018-01-24T11:26:57.518Z,91
2018-01-24T11:27:58.236Z,91
2018-01-24T11:28:58.970Z,91
2018-01-24T11:29:59.690Z,91
2018-01-24T11:31:00.411Z,90
2018-01-24T11:32:01.153Z,91
2018-01-24T11:33:01.863Z,91
2018-01-24T11:34:02.583Z,91
2018-01-24T11:35:03.303Z,91
2018-01-24T11:36:04.021Z,91
2018-01-24T11:37:04.741Z,90
2018-01-24T11:38:05.461Z,90
2018-01-24T11:39:06.184Z,90
2018-01-24T11:40:06.917Z,90
2018-01-24T11:41:07.636Z,90
2018-01-24T11:42:08.369Z,90
2018-01-24T11:43:09.101Z,90
2018-01-24T11:44:09.832Z,90
2018-01-24T11:45:10.550Z,90
2018-01-24T11:46:11.282Z,90
2018-01-24T11:47:12.002Z,90
2018-01-24T11:48:12.718Z,90
2018-01-24T11:49:13.435Z,90
2018-01-24T11:50:14.154Z,89
2018-01-24T11:51:14.873Z,90
2018-01-24T11:52:15.590Z,90
2018-01-24T11:53:16.320Z,90
2018-01-24T11:54:17.037Z,90
2018-01-24T11:55:17.756Z,90
2018-01-24T11:56:18.474Z,90
2018-01-24T11:57:19.189Z,90
2018-01-24T11:58:19.906Z,90
2018-01-24T11:59:20.623Z,90
2018-01-24T12:00:21.340Z,90
2018-01-24T12:01:22.057Z,90
2018-01-24T12:02:22.786Z,90
2018-01-24T12:03:23.503Z,90
2018-01-24T12:04:24.221Z,90
2018-01-24T12:05:24.937Z,90
2018-01-24T12:06:25.668Z,90
2018-01-24T12:07:26.385Z,90
2018-01-24T12:08:27.100Z,90
2018-01-24T12:09:27.830Z,90
2018-01-24T12:10:28.545Z,89
2018-01-24T12:11:29.274Z,90
2018-01-24T12:12:29.988Z,90
2018-01-24T12:13:30.702Z,90
2018-01-24T12:14:31.434Z,89
2018-01-24T12:15:32.164Z,90
2018-01-24T12:16:32.894Z,90
2018-01-24T12:17:33.621Z,90
2018-01-24T12:18:34.335Z,89
2018-01-24T12:19:35.051Z,90
2018-01-24T12:20:35.781Z,90
2018-01-24T12:21:36.510Z,89
2018-01-24T12:22:37.226Z,89
2018-01-24T12:23:37.955Z,90
2018-01-24T12:24:38.671Z,89
2018-01-24T12:25:39.386Z,89
2018-01-24T12:26:40.100Z,90
2018-01-24T12:27:40.849Z,89
2018-01-24T12:28:41.530Z,90
2018-01-24T12:29:42.260Z,89
2018-01-24T12:30:42.975Z,90
2018-01-24T12:31:43.690Z,89
2018-01-24T12:32:44.406Z,90
2018-01-24T12:33:45.122Z,89
2018-01-24T12:34:45.837Z,89
2018-01-24T12:35:46.551Z,89
2018-01-24T12:36:47.265Z,90
2018-01-24T12:37:47.981Z,90
2018-01-24T12:38:48.696Z,89
2018-01-24T12:39:49.411Z,89
2018-01-24T12:40:50.140Z,89
2018-01-24T12:41:50.869Z,89
2018-01-24T12:42:51.601Z,89
2018-01-24T12:43:52.316Z,89
2018-01-24T12:44:53.029Z,89
2018-01-24T12:45:53.743Z,89
2018-01-24T12:46:54.458Z,90
2018-01-24T12:47:55.173Z,89
2018-01-24T12:48:55.887Z,89
2018-01-24T12:49:56.603Z,89
2018-01-24T12:50:57.338Z,89
2018-01-24T12:51:58.052Z,89
2018-01-24T12:52:58.766Z,89
2018-01-24T12:53:59.498Z,89
2018-01-24T12:55:00.223Z,89
2018-01-24T12:56:00.936Z,89
2018-01-24T12:57:01.650Z,89
2018-01-24T12:58:02.365Z,89
2018-01-24T12:59:03.080Z,89
2018-01-24T13:00:03.794Z,89
2018-01-24T13:01:04.523Z,89
2018-01-24T13:02:05.237Z,89
2018-01-24T13:03:05.968Z,89
2018-01-24T13:04:06.682Z,88
2018-01-24T13:05:07.396Z,89
2018-01-24T13:06:08.110Z,89
2018-01-24T13:07:08.824Z,88
2018-01-24T13:08:09.540Z,89
2018-01-24T13:09:10.257Z,88
2018-01-24T13:10:10.974Z,89
2018-01-24T13:11:11.690Z,89
2018-01-24T13:12:12.415Z,89
2018-01-24T13:13:13.131Z,89
2018-01-24T13:14:13.844Z,89
2018-01-24T13:15:14.559Z,89
2018-01-24T13:16:15.273Z,89
2018-01-24T13:17:15.987Z,88
2018-01-24T13:18:16.715Z,88
2018-01-24T13:19:17.430Z,88
2018-01-24T13:20:18.143Z,89
2018-01-24T13:21:18.859Z,88
2018-01-24T13:22:19.577Z,88
2018-01-24T13:23:20.287Z,88
2018-01-24T13:24:21.014Z,88
2018-01-24T13:25:21.728Z,88
2018-01-24T13:26:22.441Z,89
2018-01-24T13:27:23.155Z,88
2018-01-24T13:28:23.868Z,88
2018-01-24T13:29:24.581Z,88
2018-01-24T13:30:25.293Z,88
2018-01-24T13:31:26.020Z,88
2018-01-24T13:32:26.733Z,88
2018-01-24T13:33:27.447Z,88
2018-01-24T13:34:28.162Z,88
2018-01-24T13:35:28.890Z,88
2018-01-24T13:36:29.617Z,88
2018-01-24T13:37:30.342Z,88
2018-01-24T13:38:31.054Z,88
2018-01-24T13:39:31.767Z,88
2018-01-24T13:40:32.496Z,88
2018-01-24T13:41:33.211Z,88
2018-01-24T13:42:33.926Z,87
2018-01-24T13:43:34.653Z,88
2018-01-24T13:44:35.383Z,88
2018-01-24T13:45:36.109Z,88
2018-01-24T13:46:36.822Z,88
2018-01-24T13:47:37.536Z,88
2018-01-24T13:48:38.248Z,88
2018-01-24T13:49:38.977Z,88
2018-01-24T13:50:39.691Z,88
2018-01-24T13:51:40.403Z,88
2018-01-24T13:52:41.118Z,88
2018-01-24T13:53:41.832Z,88
2018-01-24T13:54:42.544Z,88
2018-01-24T13:55:43.255Z,88
2018-01-24T13:56:43.968Z,88
2018-01-24T13:57:44.683Z,88
2018-01-24T13:58:45.398Z,88
2018-01-24T13:59:46.109Z,88
2018-01-24T14:00:46.836Z,88
2018-01-24T14:01:47.549Z,88
2018-01-24T14:02:48.279Z,88
2018-01-24T14:03:48.992Z,88
2018-01-24T14:04:49.726Z,87
2018-01-24T14:05:50.454Z,88
2018-01-24T14:06:51.180Z,88
2018-01-24T14:07:51.894Z,88
2018-01-24T14:08:52.608Z,88
2018-01-24T14:09:53.322Z,88
2018-01-24T14:10:54.036Z,88
2018-01-24T14:11:54.750Z,88
2018-01-24T14:12:55.464Z,88
2018-01-24T14:13:56.178Z,88
2018-01-24T14:14:56.892Z,88
2018-01-24T14:15:57.606Z,88
2018-01-24T14:16:58.336Z,88
2018-01-24T14:17:59.050Z,88
2018-01-24T14:18:59.763Z,88
2018-01-24T14:20:00.478Z,87
2018-01-24T14:21:01.193Z,87
2018-01-24T14:22:01.924Z,88
2018-01-24T14:23:02.652Z,88
2018-01-24T14:24:03.382Z,88
2018-01-24T14:25:04.097Z,88
2018-01-24T14:26:04.809Z,87